sensor_id;sensor_type;location;lat;lon;timestamp;P1;durP1;ratioP1;P2;durP2;ratioP2
26908;SDS011;14477;51.038;4.588;2024-01-07T16:20:00;5.00;;;2.72;;
26908;SDS011;14477;51.038;4.588;2024-01-07T16:22:26;6.30;;;3.15;;
26908;SDS011;14477;51.038;4.588;2024-01-07T16:24:52;6.33;;;2.93;;
26908;SDS011;14477;51.038;4.588;2024-01-07T16:27:18;4.82;;;2.63;;
26908;SDS011;14477;51.038;4.588;2024-01-07T16:29:44;4.72;;;2.83;;
26908;SDS011;14477;51.038;4.588;2024-01-07T16:32:09;4.70;;;2.43;;
26908;SDS011;14477;51.038;4.588;2024-01-07T16:34:36;6.68;;;3.35;;
26908;SDS011;14477;51.038;4.588;2024-01-07T16:37:02;5.45;;;2.95;;
26908;SDS011;14477;51.038;4.588;2024-01-07T16:39:27;5.70;;;3.07;;
26908;SDS011;14477;51.038;4.588;2024-01-07T16:41:53;5.43;;;3.03;;
26908;SDS011;14477;51.038;4.588;2024-01-07T16:44:23;5.07;;;2.88;;
26908;SDS011;14477;51.038;4.588;2024-01-07T16:46:50;6.03;;;3.03;;
26908;SDS011;14477;51.038;4.588;2024-01-07T16:49:16;7.13;;;3.25;;
26908;SDS011;14477;51.038;4.588;2024-01-07T16:51:43;5.30;;;2.97;;
26908;SDS011;14477;51.038;4.588;2024-01-07T16:54:09;6.43;;;3.40;;
26908;SDS011;14477;51.038;4.588;2024-01-07T16:56:34;5.57;;;3.13;;
26908;SDS011;14477;51.038;4.588;2024-01-07T16:59:00;6.50;;;3.53;;
26908;SDS011;14477;51.038;4.588;2024-01-07T17:01:26;4.97;;;2.50;;
26908;SDS011;14477;51.038;4.588;2024-01-07T17:03:52;5.45;;;3.00;;
26908;SDS011;14477;51.038;4.588;2024-01-07T17:06:24;5.38;;;2.67;;
26908;SDS011;14477;51.038;4.588;2024-01-07T17:08:51;6.03;;;2.63;;
26908;SDS011;14477;51.038;4.588;2024-01-07T17:11:16;5.70;;;3.25;;
26908;SDS011;14477;51.038;4.588;2024-01-07T17:13:44;6.80;;;3.20;;
26908;SDS011;14477;51.038;4.588;2024-01-07T17:16:10;6.20;;;3.10;;
26908;SDS011;14477;51.038;4.588;2024-01-07T17:18:36;5.50;;;3.10;;
26908;SDS011;14477;51.038;4.588;2024-01-07T17:21:02;4.78;;;2.88;;
26908;SDS011;14477;51.038;4.588;2024-01-07T17:23:27;5.70;;;2.93;;
26908;SDS011;14477;51.038;4.588;2024-01-07T17:25:53;4.70;;;2.65;;
26908;SDS011;14477;51.038;4.588;2024-01-07T17:28:19;5.93;;;2.47;;
26908;SDS011;14477;51.038;4.588;2024-01-07T17:30:45;5.72;;;3.15;;
26908;SDS011;14477;51.038;4.588;2024-01-07T17:33:10;3.60;;;1.97;;
26908;SDS011;14477;51.038;4.588;2024-01-07T17:35:36;5.07;;;2.60;;
26908;SDS011;14477;51.038;4.588;2024-01-07T17:38:03;4.43;;;2.40;;
26908;SDS011;14477;51.038;4.588;2024-01-07T17:40:30;4.45;;;2.40;;
26908;SDS011;14477;51.038;4.588;2024-01-07T17:42:56;5.53;;;2.53;;
26908;SDS011;14477;51.038;4.588;2024-01-07T17:45:24;4.70;;;2.50;;
26908;SDS011;14477;51.038;4.588;2024-01-07T17:47:50;4.78;;;2.40;;
26908;SDS011;14477;51.038;4.588;2024-01-07T17:50:18;4.13;;;2.10;;
26908;SDS011;14477;51.038;4.588;2024-01-07T17:52:44;3.28;;;1.77;;
26908;SDS011;14477;51.038;4.588;2024-01-07T17:55:10;4.32;;;2.15;;
26908;SDS011;14477;51.038;4.588;2024-01-07T17:57:36;3.43;;;1.93;;
26908;SDS011;14477;51.038;4.588;2024-01-07T18:00:02;4.85;;;2.35;;
26908;SDS011;14477;51.038;4.588;2024-01-07T18:02:31;4.38;;;2.10;;
26908;SDS011;14477;51.038;4.588;2024-01-07T18:04:57;3.00;;;1.80;;
26908;SDS011;14477;51.038;4.588;2024-01-07T18:07:23;4.67;;;2.03;;
26908;SDS011;14477;51.038;4.588;2024-01-07T18:09:48;4.60;;;2.40;;
26908;SDS011;14477;51.038;4.588;2024-01-07T18:12:15;3.93;;;2.00;;
26908;SDS011;14477;51.038;4.588;2024-01-07T18:14:42;4.82;;;1.95;;
26908;SDS011;14477;51.038;4.588;2024-01-07T18:17:09;4.13;;;2.05;;
26908;SDS011;14477;51.038;4.588;2024-01-07T18:19:35;3.72;;;2.10;;
26908;SDS011;14477;51.038;4.588;2024-01-07T18:22:01;4.13;;;2.10;;
26908;SDS011;14477;51.038;4.588;2024-01-07T18:24:28;3.95;;;1.98;;
26908;SDS011;14477;51.038;4.588;2024-01-07T18:26:55;3.33;;;1.77;;
26908;SDS011;14477;51.038;4.588;2024-01-07T18:29:23;4.13;;;1.88;;
26908;SDS011;14477;51.038;4.588;2024-01-07T18:31:49;3.35;;;1.85;;
26908;SDS011;14477;51.038;4.588;2024-01-07T18:34:15;5.00;;;2.30;;
26908;SDS011;14477;51.038;4.588;2024-01-07T18:36:40;3.75;;;1.98;;
26908;SDS011;14477;51.038;4.588;2024-01-07T18:39:06;4.50;;;2.23;;
26908;SDS011;14477;51.038;4.588;2024-01-07T18:41:36;4.35;;;2.10;;
26908;SDS011;14477;51.038;4.588;2024-01-07T18:44:02;4.13;;;2.13;;
26908;SDS011;14477;51.038;4.588;2024-01-07T18:46:29;4.20;;;2.10;;
26908;SDS011;14477;51.038;4.588;2024-01-07T18:48:54;3.63;;;1.87;;
26908;SDS011;14477;51.038;4.588;2024-01-07T18:51:20;3.75;;;2.03;;
26908;SDS011;14477;51.038;4.588;2024-01-07T18:53:46;3.72;;;1.80;;
26908;SDS011;14477;51.038;4.588;2024-01-07T18:56:11;3.43;;;1.90;;
26908;SDS011;14477;51.038;4.588;2024-01-07T18:58:37;3.10;;;1.70;;
26908;SDS011;14477;51.038;4.588;2024-01-07T19:01:05;3.17;;;1.80;;
26908;SDS011;14477;51.038;4.588;2024-01-07T19:03:31;6.45;;;2.10;;
26908;SDS011;14477;51.038;4.588;2024-01-07T19:05:57;4.60;;;2.33;;
26908;SDS011;14477;51.038;4.588;2024-01-07T19:08:24;4.28;;;2.05;;
26908;SDS011;14477;51.038;4.588;2024-01-07T19:10:50;3.17;;;1.93;;
26908;SDS011;14477;51.038;4.588;2024-01-07T19:13:16;3.92;;;1.70;;
26908;SDS011;14477;51.038;4.588;2024-01-07T19:15:41;3.25;;;1.73;;
26908;SDS011;14477;51.038;4.588;2024-01-07T19:18:10;3.50;;;2.00;;
26908;SDS011;14477;51.038;4.588;2024-01-07T19:20:36;4.18;;;2.10;;
26908;SDS011;14477;51.038;4.588;2024-01-07T19:23:01;3.00;;;1.60;;
26908;SDS011;14477;51.038;4.588;2024-01-07T19:25:29;3.07;;;1.60;;
26908;SDS011;14477;51.038;4.588;2024-01-07T19:27:54;2.22;;;1.30;;
26908;SDS011;14477;51.038;4.588;2024-01-07T19:30:22;2.75;;;1.23;;
26908;SDS011;14477;51.038;4.588;2024-01-07T19:32:49;2.90;;;1.70;;
26908;SDS011;14477;51.038;4.588;2024-01-07T19:35:15;3.00;;;1.77;;
26908;SDS011;14477;51.038;4.588;2024-01-07T19:37:42;2.25;;;1.20;;
26908;SDS011;14477;51.038;4.588;2024-01-07T19:40:08;3.10;;;1.60;;
26908;SDS011;14477;51.038;4.588;2024-01-07T19:42:34;3.60;;;1.90;;
26908;SDS011;14477;51.038;4.588;2024-01-07T19:44:59;2.87;;;1.43;;
26908;SDS011;14477;51.038;4.588;2024-01-07T19:47:26;2.45;;;1.60;;
26908;SDS011;14477;51.038;4.588;2024-01-07T19:49:53;3.45;;;1.65;;
26908;SDS011;14477;51.038;4.588;2024-01-07T19:52:19;3.72;;;1.90;;
26908;SDS011;14477;51.038;4.588;2024-01-07T19:54:48;2.73;;;1.57;;
26908;SDS011;14477;51.038;4.588;2024-01-07T19:57:13;2.60;;;1.20;;
26908;SDS011;14477;51.038;4.588;2024-01-07T19:59:39;2.97;;;1.58;;
26908;SDS011;14477;51.038;4.588;2024-01-07T20:02:08;3.33;;;1.67;;
26908;SDS011;14477;51.038;4.588;2024-01-07T20:04:34;5.82;;;1.77;;
26908;SDS011;14477;51.038;4.588;2024-01-07T20:07:00;4.65;;;1.65;;
26908;SDS011;14477;51.038;4.588;2024-01-07T20:09:28;3.87;;;1.80;;
26908;SDS011;14477;51.038;4.588;2024-01-07T20:11:54;2.70;;;1.40;;
26908;SDS011;14477;51.038;4.588;2024-01-07T20:14:20;3.78;;;1.95;;
26908;SDS011;14477;51.038;4.588;2024-01-07T20:16:46;2.60;;;1.38;;
26908;SDS011;14477;51.038;4.588;2024-01-07T20:19:11;3.07;;;1.40;;
26908;SDS011;14477;51.038;4.588;2024-01-07T20:21:38;2.92;;;1.40;;
26908;SDS011;14477;51.038;4.588;2024-01-07T20:24:05;3.58;;;1.80;;
26908;SDS011;14477;51.038;4.588;2024-01-07T20:26:31;2.80;;;1.53;;
26908;SDS011;14477;51.038;4.588;2024-01-07T20:28:57;3.20;;;1.48;;
26908;SDS011;14477;51.038;4.588;2024-01-07T20:31:24;2.42;;;1.20;;
26908;SDS011;14477;51.038;4.588;2024-01-07T20:33:51;3.63;;;1.87;;
26908;SDS011;14477;51.038;4.588;2024-01-07T20:36:17;4.78;;;2.10;;
26908;SDS011;14477;51.038;4.588;2024-01-07T20:38:43;3.85;;;2.00;;
26908;SDS011;14477;51.038;4.588;2024-01-07T20:41:10;3.20;;;1.75;;
26908;SDS011;14477;51.038;4.588;2024-01-07T20:43:36;2.65;;;1.60;;
26908;SDS011;14477;51.038;4.588;2024-01-07T20:46:06;3.67;;;1.80;;
26908;SDS011;14477;51.038;4.588;2024-01-07T20:48:32;4.45;;;2.13;;
26908;SDS011;14477;51.038;4.588;2024-01-07T20:51:03;3.95;;;2.10;;
26908;SDS011;14477;51.038;4.588;2024-01-07T20:53:29;4.18;;;1.85;;
26908;SDS011;14477;51.038;4.588;2024-01-07T20:55:56;3.55;;;2.00;;
26908;SDS011;14477;51.038;4.588;2024-01-07T20:58:25;3.30;;;1.70;;
26908;SDS011;14477;51.038;4.588;2024-01-07T21:00:52;3.88;;;2.13;;
26908;SDS011;14477;51.038;4.588;2024-01-07T21:03:18;3.15;;;1.88;;
26908;SDS011;14477;51.038;4.588;2024-01-07T21:05:44;3.17;;;1.80;;
26908;SDS011;14477;51.038;4.588;2024-01-07T21:08:10;4.95;;;2.53;;
26908;SDS011;14477;51.038;4.588;2024-01-07T21:10:38;3.97;;;1.90;;
26908;SDS011;14477;51.038;4.588;2024-01-07T21:13:05;5.45;;;2.53;;
26908;SDS011;14477;51.038;4.588;2024-01-07T21:15:32;3.77;;;2.20;;
26908;SDS011;14477;51.038;4.588;2024-01-07T21:18:00;5.32;;;2.75;;
26908;SDS011;14477;51.038;4.588;2024-01-07T21:20:29;5.25;;;2.42;;
26908;SDS011;14477;51.038;4.588;2024-01-07T21:22:56;4.90;;;2.15;;
26908;SDS011;14477;51.038;4.588;2024-01-07T21:25:23;4.53;;;2.50;;
26908;SDS011;14477;51.038;4.588;2024-01-07T21:27:49;5.23;;;1.90;;
26908;SDS011;14477;51.038;4.588;2024-01-07T21:30:16;4.85;;;2.70;;
26908;SDS011;14477;51.038;4.588;2024-01-07T21:32:42;5.07;;;2.67;;
26908;SDS011;14477;51.038;4.588;2024-01-07T21:35:08;4.40;;;2.30;;
26908;SDS011;14477;51.038;4.588;2024-01-07T21:37:34;4.05;;;2.30;;
26908;SDS011;14477;51.038;4.588;2024-01-07T21:40:00;5.07;;;2.53;;
26908;SDS011;14477;51.038;4.588;2024-01-07T21:42:29;4.82;;;2.33;;
26908;SDS011;14477;51.038;4.588;2024-01-07T21:44:58;4.35;;;2.28;;
26908;SDS011;14477;51.038;4.588;2024-01-07T21:47:24;5.23;;;2.40;;
26908;SDS011;14477;51.038;4.588;2024-01-07T21:49:50;4.72;;;2.30;;
26908;SDS011;14477;51.038;4.588;2024-01-07T21:52:16;4.63;;;2.33;;
26908;SDS011;14477;51.038;4.588;2024-01-07T21:54:50;4.95;;;2.53;;
26908;SDS011;14477;51.038;4.588;2024-01-07T21:57:17;4.40;;;2.27;;
26908;SDS011;14477;51.038;4.588;2024-01-07T21:59:42;5.65;;;2.45;;
26908;SDS011;14477;51.038;4.588;2024-01-07T22:02:08;4.57;;;2.17;;
26908;SDS011;14477;51.038;4.588;2024-01-07T22:04:37;5.57;;;2.87;;
26908;SDS011;14477;51.038;4.588;2024-01-07T22:07:03;4.53;;;2.45;;
26908;SDS011;14477;51.038;4.588;2024-01-07T22:09:29;4.10;;;2.38;;
26908;SDS011;14477;51.038;4.588;2024-01-07T22:11:55;5.13;;;2.50;;
26908;SDS011;14477;51.038;4.588;2024-01-07T22:14:21;5.05;;;2.60;;
26908;SDS011;14477;51.038;4.588;2024-01-07T22:16:47;5.97;;;2.57;;
26908;SDS011;14477;51.038;4.588;2024-01-07T22:19:13;5.28;;;2.88;;
26908;SDS011;14477;51.038;4.588;2024-01-07T22:21:39;5.33;;;2.80;;
26908;SDS011;14477;51.038;4.588;2024-01-07T22:24:05;5.18;;;2.53;;
26908;SDS011;14477;51.038;4.588;2024-01-07T22:26:34;4.80;;;2.40;;
26908;SDS011;14477;51.038;4.588;2024-01-07T22:28:59;4.80;;;2.50;;
26908;SDS011;14477;51.038;4.588;2024-01-07T22:31:25;5.70;;;2.53;;
26908;SDS011;14477;51.038;4.588;2024-01-07T22:33:51;4.80;;;2.60;;
26908;SDS011;14477;51.038;4.588;2024-01-07T22:36:17;5.10;;;2.70;;
26908;SDS011;14477;51.038;4.588;2024-01-07T22:38:42;5.37;;;2.90;;
26908;SDS011;14477;51.038;4.588;2024-01-07T22:41:08;4.93;;;2.80;;
26908;SDS011;14477;51.038;4.588;2024-01-07T22:43:33;6.10;;;2.70;;
26908;SDS011;14477;51.038;4.588;2024-01-07T22:45:59;6.20;;;2.72;;
26908;SDS011;14477;51.038;4.588;2024-01-07T22:48:25;7.07;;;3.00;;
26908;SDS011;14477;51.038;4.588;2024-01-07T22:50:56;4.78;;;2.50;;
26908;SDS011;14477;51.038;4.588;2024-01-07T22:53:23;4.95;;;2.90;;
26908;SDS011;14477;51.038;4.588;2024-01-07T22:55:49;7.38;;;3.10;;
26908;SDS011;14477;51.038;4.588;2024-01-07T22:58:14;6.60;;;2.77;;
26908;SDS011;14477;51.038;4.588;2024-01-07T23:00:40;7.00;;;3.03;;
26908;SDS011;14477;51.038;4.588;2024-01-07T23:03:06;6.30;;;3.13;;
26908;SDS011;14477;51.038;4.588;2024-01-07T23:05:32;5.38;;;2.13;;
26908;SDS011;14477;51.038;4.588;2024-01-07T23:07:58;7.07;;;3.00;;
26908;SDS011;14477;51.038;4.588;2024-01-07T23:10:24;5.28;;;2.67;;
26908;SDS011;14477;51.038;4.588;2024-01-07T23:12:49;8.07;;;3.35;;
26908;SDS011;14477;51.038;4.588;2024-01-07T23:15:18;4.40;;;2.30;;
26908;SDS011;14477;51.038;4.588;2024-01-07T23:17:44;4.95;;;2.80;;
26908;SDS011;14477;51.038;4.588;2024-01-07T23:20:10;6.10;;;2.93;;
26908;SDS011;14477;51.038;4.588;2024-01-07T23:22:36;6.00;;;3.03;;
26908;SDS011;14477;51.038;4.588;2024-01-07T23:25:02;5.50;;;2.83;;
26908;SDS011;14477;51.038;4.588;2024-01-07T23:27:29;6.50;;;3.03;;
26908;SDS011;14477;51.038;4.588;2024-01-07T23:29:55;7.43;;;3.10;;
26908;SDS011;14477;51.038;4.588;2024-01-07T23:32:22;6.30;;;2.40;;
26908;SDS011;14477;51.038;4.588;2024-01-07T23:34:48;6.45;;;2.85;;
26908;SDS011;14477;51.038;4.588;2024-01-07T23:37:14;5.20;;;2.43;;
26908;SDS011;14477;51.038;4.588;2024-01-07T23:39:40;6.97;;;3.00;;
26908;SDS011;14477;51.038;4.588;2024-01-07T23:42:06;5.87;;;3.10;;
26908;SDS011;14477;51.038;4.588;2024-01-07T23:44:31;7.35;;;3.42;;
26908;SDS011;14477;51.038;4.588;2024-01-07T23:46:57;6.63;;;3.00;;
26908;SDS011;14477;51.038;4.588;2024-01-07T23:49:24;9.10;;;4.13;;
26908;SDS011;14477;51.038;4.588;2024-01-07T23:51:53;7.80;;;3.33;;
26908;SDS011;14477;51.038;4.588;2024-01-07T23:54:19;7.18;;;3.17;;
26908;SDS011;14477;51.038;4.588;2024-01-07T23:56:45;9.57;;;4.30;;
26908;SDS011;14477;51.038;4.588;2024-01-07T23:59:11;7.78;;;3.72;;
